sensor_id;sensor_type;location;lat;lon;timestamp;temperature;humidity
21282;DHT22;10800;53.096;18.328;2023-05-10T00:04:00;9.20;71.00
21282;DHT22;10800;53.096;18.328;2023-05-10T00:09:05;9.20;71.50
21282;DHT22;10800;53.096;18.328;2023-05-10T00:14:11;9.10;71.40
21282;DHT22;10800;53.096;18.328;2023-05-10T00:19:17;9.10;71.80
21282;DHT22;10800;53.096;18.328;2023-05-10T00:24:22;9.00;72.00
21282;DHT22;10800;53.096;18.328;2023-05-10T00:29:28;8.90;73.10
21282;DHT22;10800;53.096;18.328;2023-05-10T00:34:33;8.90;72.80
21282;DHT22;10800;53.096;18.328;2023-05-10T00:39:38;8.80;72.90
21282;DHT22;10800;53.096;18.328;2023-05-10T00:44:43;8.80;73.20
21282;DHT22;10800;53.096;18.328;2023-05-10T00:49:49;8.80;73.90
21282;DHT22;10800;53.096;18.328;2023-05-10T00:54:54;8.70;73.60
21282;DHT22;10800;53.096;18.328;2023-05-10T01:00:00;8.70;73.90
21282;DHT22;10800;53.096;18.328;2023-05-10T01:05:07;8.60;73.70
21282;DHT22;10800;53.096;18.328;2023-05-10T01:10:13;8.60;74.20
21282;DHT22;10800;53.096;18.328;2023-05-10T01:15:20;8.50;74.00
21282;DHT22;10800;53.096;18.328;2023-05-10T01:20:28;8.50;74.50
21282;DHT22;10800;53.096;18.328;2023-05-10T01:31:11;8.50;74.40
21282;DHT22;10800;53.096;18.328;2023-05-10T01:41:46;8.30;75.10
21282;DHT22;10800;53.096;18.328;2023-05-10T01:46:51;8.20;75.20
21282;DHT22;10800;53.096;18.328;2023-05-10T01:51:59;8.30;75.20
21282;DHT22;10800;53.096;18.328;2023-05-10T01:57:06;8.20;75.00
21282;DHT22;10800;53.096;18.328;2023-05-10T02:02:14;8.20;75.60
21282;DHT22;10800;53.096;18.328;2023-05-10T02:07:21;8.10;75.80
21282;DHT22;10800;53.096;18.328;2023-05-10T02:12:29;8.10;76.20
21282;DHT22;10800;53.096;18.328;2023-05-10T02:17:37;8.10;76.00
21282;DHT22;10800;53.096;18.328;2023-05-10T02:22:45;8.10;76.30
21282;DHT22;10800;53.096;18.328;2023-05-10T02:27:54;8.00;76.30
21282;DHT22;10800;53.096;18.328;2023-05-10T02:33:01;8.00;76.90
21282;DHT22;10800;53.096;18.328;2023-05-10T02:38:07;7.90;76.50
21282;DHT22;10800;53.096;18.328;2023-05-10T02:43:19;7.80;77.10
21282;DHT22;10800;53.096;18.328;2023-05-10T02:48:26;7.90;77.00
21282;DHT22;10800;53.096;18.328;2023-05-10T02:53:36;7.80;77.30
21282;DHT22;10800;53.096;18.328;2023-05-10T02:58:42;7.80;77.40
21282;DHT22;10800;53.096;18.328;2023-05-10T03:03:48;7.70;77.50
21282;DHT22;10800;53.096;18.328;2023-05-10T03:08:53;7.80;78.00
21282;DHT22;10800;53.096;18.328;2023-05-10T03:19:20;7.80;78.00
21282;DHT22;10800;53.096;18.328;2023-05-10T03:24:26;7.90;77.60
21282;DHT22;10800;53.096;18.328;2023-05-10T03:29:32;7.90;77.10
21282;DHT22;10800;53.096;18.328;2023-05-10T03:34:42;8.00;77.30
21282;DHT22;10800;53.096;18.328;2023-05-10T03:39:47;8.00;77.10
21282;DHT22;10800;53.096;18.328;2023-05-10T03:44:52;8.00;76.80
21282;DHT22;10800;53.096;18.328;2023-05-10T03:49:58;8.10;77.40
21282;DHT22;10800;53.096;18.328;2023-05-10T03:55:03;8.10;77.10
21282;DHT22;10800;53.096;18.328;2023-05-10T04:00:09;8.20;76.70
21282;DHT22;10800;53.096;18.328;2023-05-10T04:05:15;8.30;76.00
21282;DHT22;10800;53.096;18.328;2023-05-10T04:10:22;8.40;76.20
21282;DHT22;10800;53.096;18.328;2023-05-10T04:15:28;8.60;75.80
21282;DHT22;10800;53.096;18.328;2023-05-10T04:20:33;8.60;75.50
21282;DHT22;10800;53.096;18.328;2023-05-10T04:25:38;8.70;75.20
21282;DHT22;10800;53.096;18.328;2023-05-10T04:30:44;8.80;74.90
21282;DHT22;10800;53.096;18.328;2023-05-10T04:35:49;8.90;75.80
21282;DHT22;10800;53.096;18.328;2023-05-10T04:41:17;9.10;74.50
21282;DHT22;10800;53.096;18.328;2023-05-10T04:46:03;9.20;75.40
21282;DHT22;10800;53.096;18.328;2023-05-10T04:51:14;9.30;75.30
21282;DHT22;10800;53.096;18.328;2023-05-10T04:56:21;9.40;74.90
21282;DHT22;10800;53.096;18.328;2023-05-10T05:01:26;9.60;74.30
21282;DHT22;10800;53.096;18.328;2023-05-10T05:06:32;9.70;75.00
21282;DHT22;10800;53.096;18.328;2023-05-10T05:11:37;9.90;74.20
21282;DHT22;10800;53.096;18.328;2023-05-10T05:16:44;10.00;73.50
21282;DHT22;10800;53.096;18.328;2023-05-10T05:21:49;10.30;73.40
21282;DHT22;10800;53.096;18.328;2023-05-10T05:26:55;10.60;71.50
21282;DHT22;10800;53.096;18.328;2023-05-10T05:32:00;10.90;70.40
21282;DHT22;10800;53.096;18.328;2023-05-10T05:37:06;11.30;69.40
21282;DHT22;10800;53.096;18.328;2023-05-10T05:42:12;11.60;68.10
21282;DHT22;10800;53.096;18.328;2023-05-10T05:47:18;12.00;67.10
21282;DHT22;10800;53.096;18.328;2023-05-10T05:52:42;12.20;65.20
21282;DHT22;10800;53.096;18.328;2023-05-10T05:57:47;12.40;63.50
21282;DHT22;10800;53.096;18.328;2023-05-10T06:03:03;12.80;62.70
21282;DHT22;10800;53.096;18.328;2023-05-10T06:08:08;13.30;61.70
21282;DHT22;10800;53.096;18.328;2023-05-10T06:13:17;13.70;60.20
21282;DHT22;10800;53.096;18.328;2023-05-10T06:18:24;14.00;59.40
21282;DHT22;10800;53.096;18.328;2023-05-10T06:23:33;14.30;58.20
21282;DHT22;10800;53.096;18.328;2023-05-10T06:28:38;14.50;56.60
21282;DHT22;10800;53.096;18.328;2023-05-10T06:33:44;14.80;56.70
21282;DHT22;10800;53.096;18.328;2023-05-10T06:38:49;15.10;55.20
21282;DHT22;10800;53.096;18.328;2023-05-10T06:44:01;15.50;54.80
21282;DHT22;10800;53.096;18.328;2023-05-10T06:49:07;15.60;53.90
21282;DHT22;10800;53.096;18.328;2023-05-10T06:54:13;16.10;53.00
21282;DHT22;10800;53.096;18.328;2023-05-10T06:59:20;16.20;51.50
21282;DHT22;10800;53.096;18.328;2023-05-10T07:04:26;16.60;51.90
21282;DHT22;10800;53.096;18.328;2023-05-10T07:09:31;16.50;51.60
21282;DHT22;10800;53.096;18.328;2023-05-10T07:14:38;16.50;52.20
21282;DHT22;10800;53.096;18.328;2023-05-10T07:19:44;16.90;50.10
21282;DHT22;10800;53.096;18.328;2023-05-10T07:24:49;17.00;50.20
21282;DHT22;10800;53.096;18.328;2023-05-10T07:29:54;17.10;50.20
21282;DHT22;10800;53.096;18.328;2023-05-10T07:35:00;17.70;48.60
21282;DHT22;10800;53.096;18.328;2023-05-10T07:40:07;18.20;49.10
21282;DHT22;10800;53.096;18.328;2023-05-10T07:45:13;18.20;47.20
21282;DHT22;10800;53.096;18.328;2023-05-10T07:50:19;18.00;47.60
21282;DHT22;10800;53.096;18.328;2023-05-10T07:55:25;17.90;46.40
21282;DHT22;10800;53.096;18.328;2023-05-10T08:00:32;18.00;46.60
21282;DHT22;10800;53.096;18.328;2023-05-10T08:05:39;18.80;46.30
21282;DHT22;10800;53.096;18.328;2023-05-10T08:10:46;18.50;46.70
21282;DHT22;10800;53.096;18.328;2023-05-10T08:15:52;19.00;45.70
21282;DHT22;10800;53.096;18.328;2023-05-10T08:20:57;19.60;44.50
21282;DHT22;10800;53.096;18.328;2023-05-10T08:26:03;19.10;44.70
21282;DHT22;10800;53.096;18.328;2023-05-10T08:31:09;19.00;44.10
21282;DHT22;10800;53.096;18.328;2023-05-10T08:36:15;19.10;43.50
21282;DHT22;10800;53.096;18.328;2023-05-10T08:41:24;19.50;43.40
21282;DHT22;10800;53.096;18.328;2023-05-10T08:46:33;19.50;42.40
21282;DHT22;10800;53.096;18.328;2023-05-10T08:51:42;19.60;42.20
21282;DHT22;10800;53.096;18.328;2023-05-10T08:56:48;19.70;42.40
21282;DHT22;10800;53.096;18.328;2023-05-10T09:01:55;20.30;41.70
21282;DHT22;10800;53.096;18.328;2023-05-10T09:07:01;20.00;42.10
21282;DHT22;10800;53.096;18.328;2023-05-10T09:12:06;20.20;41.80
21282;DHT22;10800;53.096;18.328;2023-05-10T09:17:14;20.80;42.40
21282;DHT22;10800;53.096;18.328;2023-05-10T09:22:20;20.30;40.80
21282;DHT22;10800;53.096;18.328;2023-05-10T09:27:29;20.20;40.80
21282;DHT22;10800;53.096;18.328;2023-05-10T09:32:41;19.90;39.60
21282;DHT22;10800;53.096;18.328;2023-05-10T09:37:49;20.50;40.10
21282;DHT22;10800;53.096;18.328;2023-05-10T09:43:06;20.30;38.70
21282;DHT22;10800;53.096;18.328;2023-05-10T09:48:11;20.40;39.70
21282;DHT22;10800;53.096;18.328;2023-05-10T09:53:17;20.10;39.60
21282;DHT22;10800;53.096;18.328;2023-05-10T09:58:24;20.30;39.50
21282;DHT22;10800;53.096;18.328;2023-05-10T10:03:33;20.50;38.70
21282;DHT22;10800;53.096;18.328;2023-05-10T10:08:38;20.50;38.30
21282;DHT22;10800;53.096;18.328;2023-05-10T10:13:48;21.10;39.80
21282;DHT22;10800;53.096;18.328;2023-05-10T10:18:53;21.70;38.90
21282;DHT22;10800;53.096;18.328;2023-05-10T10:23:59;21.40;39.10
21282;DHT22;10800;53.096;18.328;2023-05-10T10:34:34;20.60;40.60
21282;DHT22;10800;53.096;18.328;2023-05-10T10:39:39;21.10;39.60
21282;DHT22;10800;53.096;18.328;2023-05-10T10:44:44;20.60;39.90
21282;DHT22;10800;53.096;18.328;2023-05-10T10:55:12;20.30;39.90
21282;DHT22;10800;53.096;18.328;2023-05-10T11:00:21;20.90;39.90
21282;DHT22;10800;53.096;18.328;2023-05-10T11:05:34;21.60;40.40
21282;DHT22;10800;53.096;18.328;2023-05-10T11:10:49;21.60;38.70
21282;DHT22;10800;53.096;18.328;2023-05-10T11:15:49;21.00;38.60
21282;DHT22;10800;53.096;18.328;2023-05-10T11:21:02;20.80;38.40
21282;DHT22;10800;53.096;18.328;2023-05-10T11:26:10;21.10;39.50
21282;DHT22;10800;53.096;18.328;2023-05-10T11:31:17;21.30;37.80
21282;DHT22;10800;53.096;18.328;2023-05-10T11:36:33;21.70;38.40
21282;DHT22;10800;53.096;18.328;2023-05-10T11:41:40;21.40;38.90
21282;DHT22;10800;53.096;18.328;2023-05-10T11:46:46;21.00;39.30
21282;DHT22;10800;53.096;18.328;2023-05-10T11:51:52;21.20;38.10
21282;DHT22;10800;53.096;18.328;2023-05-10T11:56:57;22.00;38.50
21282;DHT22;10800;53.096;18.328;2023-05-10T12:02:04;21.40;38.30
21282;DHT22;10800;53.096;18.328;2023-05-10T12:07:10;21.20;36.80
21282;DHT22;10800;53.096;18.328;2023-05-10T12:12:18;21.20;37.90
21282;DHT22;10800;53.096;18.328;2023-05-10T12:17:30;21.60;37.40
21282;DHT22;10800;53.096;18.328;2023-05-10T12:22:34;20.90;37.90
21282;DHT22;10800;53.096;18.328;2023-05-10T12:27:39;21.00;37.60
21282;DHT22;10800;53.096;18.328;2023-05-10T12:39:51;21.20;36.80
21282;DHT22;10800;53.096;18.328;2023-05-10T12:44:57;20.90;36.70
21282;DHT22;10800;53.096;18.328;2023-05-10T12:50:05;21.10;37.10
21282;DHT22;10800;53.096;18.328;2023-05-10T12:55:14;20.70;37.80
21282;DHT22;10800;53.096;18.328;2023-05-10T13:00:19;20.90;37.90
21282;DHT22;10800;53.096;18.328;2023-05-10T13:05:25;21.00;36.10
21282;DHT22;10800;53.096;18.328;2023-05-10T13:10:31;21.20;38.00
21282;DHT22;10800;53.096;18.328;2023-05-10T13:15:36;21.10;37.60
21282;DHT22;10800;53.096;18.328;2023-05-10T13:20:42;20.70;39.00
21282;DHT22;10800;53.096;18.328;2023-05-10T13:25:48;21.20;37.80
21282;DHT22;10800;53.096;18.328;2023-05-10T13:30:53;20.40;37.00
21282;DHT22;10800;53.096;18.328;2023-05-10T13:35:59;20.60;39.40
21282;DHT22;10800;53.096;18.328;2023-05-10T13:41:04;21.00;37.20
21282;DHT22;10800;53.096;18.328;2023-05-10T13:46:10;20.60;37.40
21282;DHT22;10800;53.096;18.328;2023-05-10T13:51:16;20.70;39.00
21282;DHT22;10800;53.096;18.328;2023-05-10T13:56:24;20.40;38.10
21282;DHT22;10800;53.096;18.328;2023-05-10T14:01:29;20.30;38.40
21282;DHT22;10800;53.096;18.328;2023-05-10T14:06:36;20.50;38.20
21282;DHT22;10800;53.096;18.328;2023-05-10T14:11:41;20.40;39.10
21282;DHT22;10800;53.096;18.328;2023-05-10T14:16:47;20.50;38.30
21282;DHT22;10800;53.096;18.328;2023-05-10T14:21:56;20.30;38.30
21282;DHT22;10800;53.096;18.328;2023-05-10T14:27:01;20.50;39.40
21282;DHT22;10800;53.096;18.328;2023-05-10T14:32:06;20.40;37.90
21282;DHT22;10800;53.096;18.328;2023-05-10T14:37:13;20.00;40.50
21282;DHT22;10800;53.096;18.328;2023-05-10T14:42:19;20.10;40.60
21282;DHT22;10800;53.096;18.328;2023-05-10T14:47:28;20.20;39.40
21282;DHT22;10800;53.096;18.328;2023-05-10T14:52:34;20.10;40.30
21282;DHT22;10800;53.096;18.328;2023-05-10T14:57:40;20.00;41.20
21282;DHT22;10800;53.096;18.328;2023-05-10T15:02:46;19.90;39.10
21282;DHT22;10800;53.096;18.328;2023-05-10T15:07:53;20.00;39.30
21282;DHT22;10800;53.096;18.328;2023-05-10T15:12:59;20.00;39.80
21282;DHT22;10800;53.096;18.328;2023-05-10T15:18:06;19.90;40.10
21282;DHT22;10800;53.096;18.328;2023-05-10T15:23:12;20.00;41.50
21282;DHT22;10800;53.096;18.328;2023-05-10T15:28:17;19.70;40.20
21282;DHT22;10800;53.096;18.328;2023-05-10T15:33:26;19.60;41.80
21282;DHT22;10800;53.096;18.328;2023-05-10T15:38:31;19.70;41.40
21282;DHT22;10800;53.096;18.328;2023-05-10T15:43:37;19.70;41.60
21282;DHT22;10800;53.096;18.328;2023-05-10T15:48:42;19.60;41.30
21282;DHT22;10800;53.096;18.328;2023-05-10T15:53:54;19.60;42.00
21282;DHT22;10800;53.096;18.328;2023-05-10T15:59:01;19.50;41.10
21282;DHT22;10800;53.096;18.328;2023-05-10T16:04:08;19.40;41.40
21282;DHT22;10800;53.096;18.328;2023-05-10T16:09:14;19.30;42.00
21282;DHT22;10800;53.096;18.328;2023-05-10T16:14:20;19.20;41.70
21282;DHT22;10800;53.096;18.328;2023-05-10T16:19:27;19.20;41.00
21282;DHT22;10800;53.096;18.328;2023-05-10T16:24:35;19.00;42.10
21282;DHT22;10800;53.096;18.328;2023-05-10T16:29:41;19.10;42.40
21282;DHT22;10800;53.096;18.328;2023-05-10T16:34:47;19.00;42.70
21282;DHT22;10800;53.096;18.328;2023-05-10T16:39:54;19.00;43.50
21282;DHT22;10800;53.096;18.328;2023-05-10T16:45:01;18.70;42.60
21282;DHT22;10800;53.096;18.328;2023-05-10T16:50:09;18.60;42.80
21282;DHT22;10800;53.096;18.328;2023-05-10T16:55:16;18.50;41.60
21282;DHT22;10800;53.096;18.328;2023-05-10T17:00:29;18.50;41.30
21282;DHT22;10800;53.096;18.328;2023-05-10T17:05:34;18.40;40.90
21282;DHT22;10800;53.096;18.328;2023-05-10T17:10:41;18.30;41.50
21282;DHT22;10800;53.096;18.328;2023-05-10T17:15:48;18.20;42.60
21282;DHT22;10800;53.096;18.328;2023-05-10T17:20:54;18.10;42.70
21282;DHT22;10800;53.096;18.328;2023-05-10T17:26:06;18.00;42.40
21282;DHT22;10800;53.096;18.328;2023-05-10T17:31:30;17.90;43.00
21282;DHT22;10800;53.096;18.328;2023-05-10T17:36:36;17.80;43.40
21282;DHT22;10800;53.096;18.328;2023-05-10T17:41:49;17.70;42.40
21282;DHT22;10800;53.096;18.328;2023-05-10T17:46:54;17.60;42.40
21282;DHT22;10800;53.096;18.328;2023-05-10T17:52:00;17.40;43.10
21282;DHT22;10800;53.096;18.328;2023-05-10T17:57:27;17.30;43.10
21282;DHT22;10800;53.096;18.328;2023-05-10T18:02:38;17.10;43.60
21282;DHT22;10800;53.096;18.328;2023-05-10T18:07:43;17.00;44.10
21282;DHT22;10800;53.096;18.328;2023-05-10T18:12:48;16.90;44.30
21282;DHT22;10800;53.096;18.328;2023-05-10T18:17:54;16.70;44.70
21282;DHT22;10800;53.096;18.328;2023-05-10T18:23:00;16.60;44.50
21282;DHT22;10800;53.096;18.328;2023-05-10T18:28:06;16.50;45.20
21282;DHT22;10800;53.096;18.328;2023-05-10T18:33:12;16.30;44.80
21282;DHT22;10800;53.096;18.328;2023-05-10T18:38:17;16.20;45.30
21282;DHT22;10800;53.096;18.328;2023-05-10T18:48:41;16.00;46.30
21282;DHT22;10800;53.096;18.328;2023-05-10T18:53:49;15.80;46.00
21282;DHT22;10800;53.096;18.328;2023-05-10T18:58:56;15.60;46.70
21282;DHT22;10800;53.096;18.328;2023-05-10T19:04:01;15.60;47.10
21282;DHT22;10800;53.096;18.328;2023-05-10T19:09:10;15.40;47.90
21282;DHT22;10800;53.096;18.328;2023-05-10T19:14:16;15.10;48.40
21282;DHT22;10800;53.096;18.328;2023-05-10T19:19:24;14.90;49.00
21282;DHT22;10800;53.096;18.328;2023-05-10T19:24:35;15.00;49.30
21282;DHT22;10800;53.096;18.328;2023-05-10T19:30:21;14.90;49.60
21282;DHT22;10800;53.096;18.328;2023-05-10T19:35:53;14.90;49.80
21282;DHT22;10800;53.096;18.328;2023-05-10T19:41:05;14.80;50.30
21282;DHT22;10800;53.096;18.328;2023-05-10T19:46:12;14.70;50.40
21282;DHT22;10800;53.096;18.328;2023-05-10T19:51:29;14.70;50.40
21282;DHT22;10800;53.096;18.328;2023-05-10T19:56:36;14.60;50.80
21282;DHT22;10800;53.096;18.328;2023-05-10T20:01:46;14.50;50.80
21282;DHT22;10800;53.096;18.328;2023-05-10T20:06:52;14.40;50.80
21282;DHT22;10800;53.096;18.328;2023-05-10T20:11:58;14.40;50.70
21282;DHT22;10800;53.096;18.328;2023-05-10T20:17:05;14.30;51.00
21282;DHT22;10800;53.096;18.328;2023-05-10T20:22:20;14.20;50.90
21282;DHT22;10800;53.096;18.328;2023-05-10T20:27:38;14.10;51.30
21282;DHT22;10800;53.096;18.328;2023-05-10T20:32:44;14.00;52.20
21282;DHT22;10800;53.096;18.328;2023-05-10T20:38:15;13.90;51.70
21282;DHT22;10800;53.096;18.328;2023-05-10T20:43:30;13.80;51.90
21282;DHT22;10800;53.096;18.328;2023-05-10T20:48:58;13.80;52.20
21282;DHT22;10800;53.096;18.328;2023-05-10T20:54:09;13.70;52.30
21282;DHT22;10800;53.096;18.328;2023-05-10T20:59:18;13.70;52.30
21282;DHT22;10800;53.096;18.328;2023-05-10T21:04:24;13.60;52.70
21282;DHT22;10800;53.096;18.328;2023-05-10T21:09:29;13.50;53.10
21282;DHT22;10800;53.096;18.328;2023-05-10T21:14:34;13.40;53.70
21282;DHT22;10800;53.096;18.328;2023-05-10T21:19:40;13.30;53.70
21282;DHT22;10800;53.096;18.328;2023-05-10T21:24:47;13.20;54.20
21282;DHT22;10800;53.096;18.328;2023-05-10T21:29:52;13.10;54.80
21282;DHT22;10800;53.096;18.328;2023-05-10T21:34:57;13.00;54.80
21282;DHT22;10800;53.096;18.328;2023-05-10T21:40:06;12.90;54.90
21282;DHT22;10800;53.096;18.328;2023-05-10T21:45:18;12.80;55.20
21282;DHT22;10800;53.096;18.328;2023-05-10T21:50:26;12.80;55.10
21282;DHT22;10800;53.096;18.328;2023-05-10T21:55:33;12.80;55.10
21282;DHT22;10800;53.096;18.328;2023-05-10T22:00:41;12.80;55.30
21282;DHT22;10800;53.096;18.328;2023-05-10T22:05:50;12.60;55.50
21282;DHT22;10800;53.096;18.328;2023-05-10T22:10:57;12.60;55.40
21282;DHT22;10800;53.096;18.328;2023-05-10T22:16:05;12.60;55.40
21282;DHT22;10800;53.096;18.328;2023-05-10T22:21:12;12.60;55.50
21282;DHT22;10800;53.096;18.328;2023-05-10T22:26:25;12.50;55.40
21282;DHT22;10800;53.096;18.328;2023-05-10T22:31:30;12.40;55.60
21282;DHT22;10800;53.096;18.328;2023-05-10T22:36:35;12.40;55.60
21282;DHT22;10800;53.096;18.328;2023-05-10T22:41:41;12.30;55.80
21282;DHT22;10800;53.096;18.328;2023-05-10T22:46:46;12.30;56.20
21282;DHT22;10800;53.096;18.328;2023-05-10T22:51:53;12.10;56.30
21282;DHT22;10800;53.096;18.328;2023-05-10T22:56:58;12.10;56.20
21282;DHT22;10800;53.096;18.328;2023-05-10T23:02:07;12.10;56.30
21282;DHT22;10800;53.096;18.328;2023-05-10T23:07:14;12.00;56.40
21282;DHT22;10800;53.096;18.328;2023-05-10T23:12:28;11.90;56.90
21282;DHT22;10800;53.096;18.328;2023-05-10T23:17:34;11.90;56.90
21282;DHT22;10800;53.096;18.328;2023-05-10T23:22:43;11.80;57.10
21282;DHT22;10800;53.096;18.328;2023-05-10T23:27:50;11.70;57.40
21282;DHT22;10800;53.096;18.328;2023-05-10T23:33:04;11.60;57.80
21282;DHT22;10800;53.096;18.328;2023-05-10T23:38:11;11.50;58.30
21282;DHT22;10800;53.096;18.328;2023-05-10T23:43:18;11.30;58.60
21282;DHT22;10800;53.096;18.328;2023-05-10T23:48:27;11.30;58.90
21282;DHT22;10800;53.096;18.328;2023-05-10T23:53:35;11.20;59.20
21282;DHT22;10800;53.096;18.328;2023-05-10T23:58:45;11.10;59.70
